sensor_id;sensor_type;location;lat;lon;timestamp;P1;durP1;ratioP1;P2;durP2;ratioP2
7359;SDS011;3720;48.274;7.796;2022-10-15T00:00:36;0.75;;;0.50;;
7359;SDS011;3720;48.274;7.796;2022-10-15T00:03:09;1.27;;;0.35;;
7359;SDS011;3720;48.274;7.796;2022-10-15T00:05:43;4.10;;;0.50;;
7359;SDS011;3720;48.274;7.796;2022-10-15T00:08:15;1.60;;;0.35;;
7359;SDS011;3720;48.274;7.796;2022-10-15T00:10:47;1.27;;;0.40;;
7359;SDS011;3720;48.274;7.796;2022-10-15T00:13:19;1.88;;;0.35;;
7359;SDS011;3720;48.274;7.796;2022-10-15T00:15:50;0.43;;;0.30;;
7359;SDS011;3720;48.274;7.796;2022-10-15T00:18:22;1.67;;;0.35;;
7359;SDS011;3720;48.274;7.796;2022-10-15T00:20:56;1.70;;;0.47;;
7359;SDS011;3720;48.274;7.796;2022-10-15T00:23:28;0.52;;;0.30;;
7359;SDS011;3720;48.274;7.796;2022-10-15T00:26:02;0.40;;;0.30;;
7359;SDS011;3720;48.274;7.796;2022-10-15T00:28:36;0.95;;;0.40;;
7359;SDS011;3720;48.274;7.796;2022-10-15T00:31:09;3.08;;;0.40;;
7359;SDS011;3720;48.274;7.796;2022-10-15T00:33:43;0.82;;;0.30;;
7359;SDS011;3720;48.274;7.796;2022-10-15T00:36:17;0.57;;;0.38;;
7359;SDS011;3720;48.274;7.796;2022-10-15T00:38:51;2.83;;;0.30;;
7359;SDS011;3720;48.274;7.796;2022-10-15T00:41:25;0.95;;;0.40;;
7359;SDS011;3720;48.274;7.796;2022-10-15T00:43:59;2.58;;;0.40;;
7359;SDS011;3720;48.274;7.796;2022-10-15T00:46:33;1.25;;;0.50;;
7359;SDS011;3720;48.274;7.796;2022-10-15T00:49:08;1.38;;;0.30;;
7359;SDS011;3720;48.274;7.796;2022-10-15T00:51:50;1.15;;;0.38;;
7359;SDS011;3720;48.274;7.796;2022-10-15T00:54:24;0.88;;;0.30;;
7359;SDS011;3720;48.274;7.796;2022-10-15T00:57:00;1.50;;;0.30;;
7359;SDS011;3720;48.274;7.796;2022-10-15T00:59:33;4.90;;;0.40;;
7359;SDS011;3720;48.274;7.796;2022-10-15T01:02:09;0.57;;;0.30;;
7359;SDS011;3720;48.274;7.796;2022-10-15T01:04:43;0.93;;;0.32;;
7359;SDS011;3720;48.274;7.796;2022-10-15T01:07:17;0.70;;;0.50;;
7359;SDS011;3720;48.274;7.796;2022-10-15T01:09:49;1.35;;;0.40;;
7359;SDS011;3720;48.274;7.796;2022-10-15T01:12:25;0.40;;;0.32;;
7359;SDS011;3720;48.274;7.796;2022-10-15T01:15:04;1.17;;;0.50;;
7359;SDS011;3720;48.274;7.796;2022-10-15T01:17:43;1.58;;;0.43;;
7359;SDS011;3720;48.274;7.796;2022-10-15T01:20:21;1.63;;;0.43;;
7359;SDS011;3720;48.274;7.796;2022-10-15T01:26:21;0.63;;;0.40;;
7359;SDS011;3720;48.274;7.796;2022-10-15T01:29:13;0.75;;;0.40;;
7359;SDS011;3720;48.274;7.796;2022-10-15T01:31:55;0.70;;;0.40;;
7359;SDS011;3720;48.274;7.796;2022-10-15T01:34:34;0.70;;;0.52;;
7359;SDS011;3720;48.274;7.796;2022-10-15T01:37:11;2.53;;;0.47;;
7359;SDS011;3720;48.274;7.796;2022-10-15T01:39:49;3.63;;;0.50;;
7359;SDS011;3720;48.274;7.796;2022-10-15T01:42:25;0.93;;;0.40;;
7359;SDS011;3720;48.274;7.796;2022-10-15T01:45:02;1.75;;;0.40;;
7359;SDS011;3720;48.274;7.796;2022-10-15T01:47:39;1.15;;;0.50;;
7359;SDS011;3720;48.274;7.796;2022-10-15T01:50:16;0.95;;;0.43;;
7359;SDS011;3720;48.274;7.796;2022-10-15T01:52:51;0.30;;;0.30;;
7359;SDS011;3720;48.274;7.796;2022-10-15T01:55:25;0.68;;;0.38;;
7359;SDS011;3720;48.274;7.796;2022-10-15T01:57:57;2.30;;;0.45;;
7359;SDS011;3720;48.274;7.796;2022-10-15T02:00:32;2.13;;;0.40;;
7359;SDS011;3720;48.274;7.796;2022-10-15T02:03:06;1.10;;;0.50;;
7359;SDS011;3720;48.274;7.796;2022-10-15T02:05:39;1.83;;;0.50;;
7359;SDS011;3720;48.274;7.796;2022-10-15T02:08:19;2.72;;;0.60;;
7359;SDS011;3720;48.274;7.796;2022-10-15T02:11:02;1.88;;;0.50;;
7359;SDS011;3720;48.274;7.796;2022-10-15T02:13:41;5.82;;;0.60;;
7359;SDS011;3720;48.274;7.796;2022-10-15T02:16:20;2.33;;;0.63;;
7359;SDS011;3720;48.274;7.796;2022-10-15T02:18:58;2.85;;;0.70;;
7359;SDS011;3720;48.274;7.796;2022-10-15T02:21:36;1.15;;;0.57;;
7359;SDS011;3720;48.274;7.796;2022-10-15T02:24:12;1.00;;;0.47;;
7359;SDS011;3720;48.274;7.796;2022-10-15T02:26:47;2.35;;;0.60;;
7359;SDS011;3720;48.274;7.796;2022-10-15T02:29:24;4.32;;;0.70;;
7359;SDS011;3720;48.274;7.796;2022-10-15T02:31:59;1.67;;;0.50;;
7359;SDS011;3720;48.274;7.796;2022-10-15T02:34:34;1.90;;;0.60;;
7359;SDS011;3720;48.274;7.796;2022-10-15T02:37:06;3.15;;;0.50;;
7359;SDS011;3720;48.274;7.796;2022-10-15T02:39:39;0.50;;;0.50;;
7359;SDS011;3720;48.274;7.796;2022-10-15T02:42:11;2.42;;;0.60;;
7359;SDS011;3720;48.274;7.796;2022-10-15T02:44:44;2.60;;;0.60;;
7359;SDS011;3720;48.274;7.796;2022-10-15T02:47:16;1.15;;;0.50;;
7359;SDS011;3720;48.274;7.796;2022-10-15T02:49:49;1.20;;;0.47;;
7359;SDS011;3720;48.274;7.796;2022-10-15T02:52:21;1.75;;;0.50;;
7359;SDS011;3720;48.274;7.796;2022-10-15T02:54:53;0.43;;;0.30;;
7359;SDS011;3720;48.274;7.796;2022-10-15T02:57:25;1.92;;;0.40;;
7359;SDS011;3720;48.274;7.796;2022-10-15T02:59:57;0.68;;;0.40;;
7359;SDS011;3720;48.274;7.796;2022-10-15T03:02:28;2.63;;;0.50;;
7359;SDS011;3720;48.274;7.796;2022-10-15T03:05:02;2.47;;;0.40;;
7359;SDS011;3720;48.274;7.796;2022-10-15T03:07:34;1.55;;;0.40;;
7359;SDS011;3720;48.274;7.796;2022-10-15T03:10:06;3.35;;;0.40;;
7359;SDS011;3720;48.274;7.796;2022-10-15T03:12:39;1.40;;;0.40;;
7359;SDS011;3720;48.274;7.796;2022-10-15T03:15:11;1.58;;;0.43;;
7359;SDS011;3720;48.274;7.796;2022-10-15T03:17:43;2.30;;;0.40;;
7359;SDS011;3720;48.274;7.796;2022-10-15T03:20:16;0.45;;;0.30;;
7359;SDS011;3720;48.274;7.796;2022-10-15T03:22:49;2.05;;;0.30;;
7359;SDS011;3720;48.274;7.796;2022-10-15T03:25:21;0.85;;;0.40;;
7359;SDS011;3720;48.274;7.796;2022-10-15T03:27:52;2.97;;;0.40;;
7359;SDS011;3720;48.274;7.796;2022-10-15T03:30:26;0.20;;;0.20;;
7359;SDS011;3720;48.274;7.796;2022-10-15T03:32:58;0.20;;;0.20;;
7359;SDS011;3720;48.274;7.796;2022-10-15T03:35:31;1.25;;;0.32;;
7359;SDS011;3720;48.274;7.796;2022-10-15T03:38:03;0.30;;;0.20;;
7359;SDS011;3720;48.274;7.796;2022-10-15T03:40:35;1.88;;;0.40;;
7359;SDS011;3720;48.274;7.796;2022-10-15T03:43:07;0.38;;;0.30;;
7359;SDS011;3720;48.274;7.796;2022-10-15T03:45:39;2.17;;;0.30;;
7359;SDS011;3720;48.274;7.796;2022-10-15T03:48:11;1.38;;;0.40;;
7359;SDS011;3720;48.274;7.796;2022-10-15T03:50:45;1.95;;;0.40;;
7359;SDS011;3720;48.274;7.796;2022-10-15T03:53:17;1.58;;;0.40;;
7359;SDS011;3720;48.274;7.796;2022-10-15T03:55:49;0.40;;;0.40;;
7359;SDS011;3720;48.274;7.796;2022-10-15T03:58:21;0.40;;;0.40;;
7359;SDS011;3720;48.274;7.796;2022-10-15T04:00:53;1.38;;;0.40;;
7359;SDS011;3720;48.274;7.796;2022-10-15T04:03:25;3.47;;;0.40;;
7359;SDS011;3720;48.274;7.796;2022-10-15T04:05:58;0.88;;;0.40;;
7359;SDS011;3720;48.274;7.796;2022-10-15T04:08:30;0.70;;;0.52;;
7359;SDS011;3720;48.274;7.796;2022-10-15T04:11:02;2.92;;;0.60;;
7359;SDS011;3720;48.274;7.796;2022-10-15T04:13:34;0.45;;;0.40;;
7359;SDS011;3720;48.274;7.796;2022-10-15T04:16:06;2.15;;;0.40;;
7359;SDS011;3720;48.274;7.796;2022-10-15T04:18:38;1.33;;;0.43;;
7359;SDS011;3720;48.274;7.796;2022-10-15T04:21:11;1.00;;;0.30;;
7359;SDS011;3720;48.274;7.796;2022-10-15T04:23:43;0.80;;;0.38;;
7359;SDS011;3720;48.274;7.796;2022-10-15T04:26:15;2.03;;;0.50;;
7359;SDS011;3720;48.274;7.796;2022-10-15T04:28:47;1.05;;;0.30;;
7359;SDS011;3720;48.274;7.796;2022-10-15T04:31:19;1.02;;;0.38;;
7359;SDS011;3720;48.274;7.796;2022-10-15T04:33:51;0.60;;;0.40;;
7359;SDS011;3720;48.274;7.796;2022-10-15T04:36:24;1.00;;;0.43;;
7359;SDS011;3720;48.274;7.796;2022-10-15T04:38:56;1.25;;;0.38;;
7359;SDS011;3720;48.274;7.796;2022-10-15T04:41:28;2.22;;;0.40;;
7359;SDS011;3720;48.274;7.796;2022-10-15T04:44:01;0.75;;;0.35;;
7359;SDS011;3720;48.274;7.796;2022-10-15T04:46:33;0.60;;;0.40;;
7359;SDS011;3720;48.274;7.796;2022-10-15T04:49:05;0.82;;;0.40;;
7359;SDS011;3720;48.274;7.796;2022-10-15T04:51:38;1.90;;;0.30;;
7359;SDS011;3720;48.274;7.796;2022-10-15T04:54:10;0.85;;;0.30;;
7359;SDS011;3720;48.274;7.796;2022-10-15T04:56:43;1.65;;;0.40;;
7359;SDS011;3720;48.274;7.796;2022-10-15T04:59:15;0.60;;;0.30;;
7359;SDS011;3720;48.274;7.796;2022-10-15T05:01:47;1.83;;;0.35;;
7359;SDS011;3720;48.274;7.796;2022-10-15T05:04:19;0.82;;;0.50;;
7359;SDS011;3720;48.274;7.796;2022-10-15T05:06:52;0.73;;;0.30;;
7359;SDS011;3720;48.274;7.796;2022-10-15T05:09:24;2.75;;;0.40;;
7359;SDS011;3720;48.274;7.796;2022-10-15T05:11:56;0.55;;;0.40;;
7359;SDS011;3720;48.274;7.796;2022-10-15T05:14:28;0.60;;;0.38;;
7359;SDS011;3720;48.274;7.796;2022-10-15T05:17:00;1.23;;;0.57;;
7359;SDS011;3720;48.274;7.796;2022-10-15T05:19:32;0.73;;;0.40;;
7359;SDS011;3720;48.274;7.796;2022-10-15T05:22:05;0.70;;;0.40;;
7359;SDS011;3720;48.274;7.796;2022-10-15T05:24:37;1.65;;;0.95;;
7359;SDS011;3720;48.274;7.796;2022-10-15T05:27:09;1.40;;;0.90;;
7359;SDS011;3720;48.274;7.796;2022-10-15T05:29:41;2.38;;;0.80;;
7359;SDS011;3720;48.274;7.796;2022-10-15T05:32:13;1.88;;;0.52;;
7359;SDS011;3720;48.274;7.796;2022-10-15T05:34:44;1.20;;;0.57;;
7359;SDS011;3720;48.274;7.796;2022-10-15T05:37:18;1.63;;;0.60;;
7359;SDS011;3720;48.274;7.796;2022-10-15T05:39:50;0.80;;;0.60;;
7359;SDS011;3720;48.274;7.796;2022-10-15T05:42:22;1.40;;;0.52;;
7359;SDS011;3720;48.274;7.796;2022-10-15T05:44:54;0.82;;;0.50;;
7359;SDS011;3720;48.274;7.796;2022-10-15T05:47:26;1.13;;;0.75;;
7359;SDS011;3720;48.274;7.796;2022-10-15T05:49:58;0.80;;;0.70;;
7359;SDS011;3720;48.274;7.796;2022-10-15T05:52:31;0.90;;;0.80;;
7359;SDS011;3720;48.274;7.796;2022-10-15T05:55:03;1.35;;;0.70;;
7359;SDS011;3720;48.274;7.796;2022-10-15T05:57:35;2.30;;;0.80;;
7359;SDS011;3720;48.274;7.796;2022-10-15T06:00:08;1.48;;;0.50;;
7359;SDS011;3720;48.274;7.796;2022-10-15T06:02:40;0.98;;;0.38;;
7359;SDS011;3720;48.274;7.796;2022-10-15T06:05:12;1.10;;;0.63;;
7359;SDS011;3720;48.274;7.796;2022-10-15T06:07:46;1.92;;;0.60;;
7359;SDS011;3720;48.274;7.796;2022-10-15T06:10:18;1.40;;;0.50;;
7359;SDS011;3720;48.274;7.796;2022-10-15T06:12:50;0.70;;;0.55;;
7359;SDS011;3720;48.274;7.796;2022-10-15T06:15:22;1.70;;;0.40;;
7359;SDS011;3720;48.274;7.796;2022-10-15T06:17:54;1.42;;;0.68;;
7359;SDS011;3720;48.274;7.796;2022-10-15T06:20:26;2.03;;;0.50;;
7359;SDS011;3720;48.274;7.796;2022-10-15T06:23:00;12.65;;;0.70;;
7359;SDS011;3720;48.274;7.796;2022-10-15T06:25:32;0.73;;;0.60;;
7359;SDS011;3720;48.274;7.796;2022-10-15T06:28:04;1.30;;;0.68;;
7359;SDS011;3720;48.274;7.796;2022-10-15T06:30:38;2.80;;;0.63;;
7359;SDS011;3720;48.274;7.796;2022-10-15T06:33:10;1.55;;;0.60;;
7359;SDS011;3720;48.274;7.796;2022-10-15T06:35:42;2.78;;;0.60;;
7359;SDS011;3720;48.274;7.796;2022-10-15T06:38:15;4.03;;;0.60;;
7359;SDS011;3720;48.274;7.796;2022-10-15T06:40:47;2.58;;;0.60;;
7359;SDS011;3720;48.274;7.796;2022-10-15T06:43:19;1.35;;;0.68;;
7359;SDS011;3720;48.274;7.796;2022-10-15T06:45:51;2.38;;;0.60;;
7359;SDS011;3720;48.274;7.796;2022-10-15T06:48:23;1.30;;;0.55;;
7359;SDS011;3720;48.274;7.796;2022-10-15T06:50:56;1.13;;;0.60;;
7359;SDS011;3720;48.274;7.796;2022-10-15T06:53:31;2.20;;;0.68;;
7359;SDS011;3720;48.274;7.796;2022-10-15T06:56:04;3.65;;;0.60;;
7359;SDS011;3720;48.274;7.796;2022-10-15T06:58:36;2.80;;;0.70;;
7359;SDS011;3720;48.274;7.796;2022-10-15T07:01:08;1.77;;;0.70;;
7359;SDS011;3720;48.274;7.796;2022-10-15T07:03:40;1.25;;;0.70;;
7359;SDS011;3720;48.274;7.796;2022-10-15T07:06:12;2.20;;;0.60;;
7359;SDS011;3720;48.274;7.796;2022-10-15T07:08:46;1.13;;;0.68;;
7359;SDS011;3720;48.274;7.796;2022-10-15T07:11:17;4.72;;;0.90;;
7359;SDS011;3720;48.274;7.796;2022-10-15T07:13:50;3.03;;;0.65;;
7359;SDS011;3720;48.274;7.796;2022-10-15T07:16:22;3.80;;;0.90;;
7359;SDS011;3720;48.274;7.796;2022-10-15T07:18:55;3.03;;;0.90;;
7359;SDS011;3720;48.274;7.796;2022-10-15T07:21:26;3.45;;;0.88;;
7359;SDS011;3720;48.274;7.796;2022-10-15T07:24:00;3.75;;;0.93;;
7359;SDS011;3720;48.274;7.796;2022-10-15T07:26:32;2.30;;;0.70;;
7359;SDS011;3720;48.274;7.796;2022-10-15T07:29:04;1.50;;;0.63;;
7359;SDS011;3720;48.274;7.796;2022-10-15T07:31:35;5.63;;;0.75;;
7359;SDS011;3720;48.274;7.796;2022-10-15T07:34:07;2.33;;;0.90;;
7359;SDS011;3720;48.274;7.796;2022-10-15T07:36:39;2.80;;;0.90;;
7359;SDS011;3720;48.274;7.796;2022-10-15T07:39:13;1.20;;;0.60;;
7359;SDS011;3720;48.274;7.796;2022-10-15T07:41:46;3.53;;;1.10;;
7359;SDS011;3720;48.274;7.796;2022-10-15T07:44:18;3.67;;;0.70;;
7359;SDS011;3720;48.274;7.796;2022-10-15T07:46:50;2.35;;;0.70;;
7359;SDS011;3720;48.274;7.796;2022-10-15T07:49:22;2.47;;;0.80;;
7359;SDS011;3720;48.274;7.796;2022-10-15T07:51:54;4.93;;;0.80;;
7359;SDS011;3720;48.274;7.796;2022-10-15T07:54:27;1.70;;;0.80;;
7359;SDS011;3720;48.274;7.796;2022-10-15T07:56:59;1.40;;;0.70;;
7359;SDS011;3720;48.274;7.796;2022-10-15T07:59:32;2.78;;;0.80;;
7359;SDS011;3720;48.274;7.796;2022-10-15T08:02:04;2.97;;;0.90;;
7359;SDS011;3720;48.274;7.796;2022-10-15T08:04:36;3.13;;;0.70;;
7359;SDS011;3720;48.274;7.796;2022-10-15T08:07:08;2.03;;;0.70;;
7359;SDS011;3720;48.274;7.796;2022-10-15T08:09:42;3.28;;;0.80;;
7359;SDS011;3720;48.274;7.796;2022-10-15T08:12:14;2.83;;;0.75;;
7359;SDS011;3720;48.274;7.796;2022-10-15T08:14:45;2.92;;;0.88;;
7359;SDS011;3720;48.274;7.796;2022-10-15T08:17:17;2.50;;;0.70;;
7359;SDS011;3720;48.274;7.796;2022-10-15T08:19:49;7.40;;;1.00;;
7359;SDS011;3720;48.274;7.796;2022-10-15T08:22:21;2.05;;;0.63;;
7359;SDS011;3720;48.274;7.796;2022-10-15T08:24:54;1.05;;;0.55;;
7359;SDS011;3720;48.274;7.796;2022-10-15T08:27:26;2.13;;;0.80;;
7359;SDS011;3720;48.274;7.796;2022-10-15T08:29:58;4.10;;;0.80;;
7359;SDS011;3720;48.274;7.796;2022-10-15T08:32:30;3.08;;;0.85;;
7359;SDS011;3720;48.274;7.796;2022-10-15T08:35:01;2.17;;;0.75;;
7359;SDS011;3720;48.274;7.796;2022-10-15T08:37:34;2.40;;;0.65;;
7359;SDS011;3720;48.274;7.796;2022-10-15T08:40:08;2.40;;;0.80;;
7359;SDS011;3720;48.274;7.796;2022-10-15T08:42:44;1.75;;;0.77;;
7359;SDS011;3720;48.274;7.796;2022-10-15T08:45:18;2.42;;;0.70;;
7359;SDS011;3720;48.274;7.796;2022-10-15T08:47:57;1.92;;;0.70;;
7359;SDS011;3720;48.274;7.796;2022-10-15T08:50:35;1.50;;;0.50;;
7359;SDS011;3720;48.274;7.796;2022-10-15T08:53:13;3.88;;;0.77;;
7359;SDS011;3720;48.274;7.796;2022-10-15T08:55:52;1.85;;;0.70;;
7359;SDS011;3720;48.274;7.796;2022-10-15T08:58:28;2.75;;;0.88;;
7359;SDS011;3720;48.274;7.796;2022-10-15T09:03:50;1.83;;;0.57;;
7359;SDS011;3720;48.274;7.796;2022-10-15T09:06:32;3.10;;;0.85;;
7359;SDS011;3720;48.274;7.796;2022-10-15T09:09:08;5.15;;;0.98;;
7359;SDS011;3720;48.274;7.796;2022-10-15T09:11:53;5.32;;;1.00;;
7359;SDS011;3720;48.274;7.796;2022-10-15T09:14:30;3.47;;;1.20;;
7359;SDS011;3720;48.274;7.796;2022-10-15T09:17:13;3.50;;;1.42;;
7359;SDS011;3720;48.274;7.796;2022-10-15T09:19:51;1.67;;;1.00;;
7359;SDS011;3720;48.274;7.796;2022-10-15T09:22:26;3.40;;;1.10;;
7359;SDS011;3720;48.274;7.796;2022-10-15T09:25:03;3.47;;;1.20;;
7359;SDS011;3720;48.274;7.796;2022-10-15T09:27:46;3.28;;;0.70;;
7359;SDS011;3720;48.274;7.796;2022-10-15T09:30:24;1.60;;;0.85;;
7359;SDS011;3720;48.274;7.796;2022-10-15T09:33:05;3.60;;;0.90;;
7359;SDS011;3720;48.274;7.796;2022-10-15T09:35:44;2.25;;;0.82;;
7359;SDS011;3720;48.274;7.796;2022-10-15T09:38:23;6.47;;;1.00;;
7359;SDS011;3720;48.274;7.796;2022-10-15T09:41:06;1.95;;;0.80;;
7359;SDS011;3720;48.274;7.796;2022-10-15T09:43:48;2.45;;;0.80;;
7359;SDS011;3720;48.274;7.796;2022-10-15T09:46:22;2.27;;;0.80;;
7359;SDS011;3720;48.274;7.796;2022-10-15T09:48:57;1.70;;;0.70;;
7359;SDS011;3720;48.274;7.796;2022-10-15T09:51:37;4.45;;;0.95;;
7359;SDS011;3720;48.274;7.796;2022-10-15T09:54:16;2.72;;;0.75;;
7359;SDS011;3720;48.274;7.796;2022-10-15T09:56:54;5.40;;;1.05;;
7359;SDS011;3720;48.274;7.796;2022-10-15T09:59:28;1.35;;;0.60;;
7359;SDS011;3720;48.274;7.796;2022-10-15T10:02:01;2.30;;;0.70;;
7359;SDS011;3720;48.274;7.796;2022-10-15T10:04:35;1.67;;;0.80;;
7359;SDS011;3720;48.274;7.796;2022-10-15T10:07:07;2.85;;;0.90;;
7359;SDS011;3720;48.274;7.796;2022-10-15T10:10:02;1.77;;;0.70;;
7359;SDS011;3720;48.274;7.796;2022-10-15T10:12:35;3.28;;;0.85;;
7359;SDS011;3720;48.274;7.796;2022-10-15T10:15:23;1.02;;;0.65;;
7359;SDS011;3720;48.274;7.796;2022-10-15T10:18:01;2.47;;;0.70;;
7359;SDS011;3720;48.274;7.796;2022-10-15T10:20:35;4.55;;;0.80;;
7359;SDS011;3720;48.274;7.796;2022-10-15T10:23:24;4.07;;;0.80;;
7359;SDS011;3720;48.274;7.796;2022-10-15T10:26:01;2.95;;;0.73;;
7359;SDS011;3720;48.274;7.796;2022-10-15T10:28:36;3.00;;;0.50;;
7359;SDS011;3720;48.274;7.796;2022-10-15T10:31:17;1.65;;;0.60;;
7359;SDS011;3720;48.274;7.796;2022-10-15T10:33:59;2.80;;;0.88;;
7359;SDS011;3720;48.274;7.796;2022-10-15T10:36:33;2.35;;;0.70;;
7359;SDS011;3720;48.274;7.796;2022-10-15T10:39:10;2.88;;;1.17;;
7359;SDS011;3720;48.274;7.796;2022-10-15T10:41:49;2.17;;;0.60;;
7359;SDS011;3720;48.274;7.796;2022-10-15T10:44:25;1.27;;;0.70;;
7359;SDS011;3720;48.274;7.796;2022-10-15T10:47:11;3.10;;;0.90;;
7359;SDS011;3720;48.274;7.796;2022-10-15T10:49:46;2.45;;;0.90;;
7359;SDS011;3720;48.274;7.796;2022-10-15T10:52:21;4.15;;;1.00;;
7359;SDS011;3720;48.274;7.796;2022-10-15T10:54:58;2.92;;;0.80;;
7359;SDS011;3720;48.274;7.796;2022-10-15T10:57:40;3.28;;;0.70;;
7359;SDS011;3720;48.274;7.796;2022-10-15T11:00:16;2.10;;;0.70;;
7359;SDS011;3720;48.274;7.796;2022-10-15T11:02:52;3.42;;;0.70;;
7359;SDS011;3720;48.274;7.796;2022-10-15T11:05:25;2.65;;;0.80;;
7359;SDS011;3720;48.274;7.796;2022-10-15T11:07:59;2.38;;;0.70;;
7359;SDS011;3720;48.274;7.796;2022-10-15T11:10:41;1.25;;;0.63;;
7359;SDS011;3720;48.274;7.796;2022-10-15T11:13:26;1.80;;;0.75;;
7359;SDS011;3720;48.274;7.796;2022-10-15T11:16:06;2.35;;;0.68;;
7359;SDS011;3720;48.274;7.796;2022-10-15T11:18:52;3.20;;;0.80;;
7359;SDS011;3720;48.274;7.796;2022-10-15T11:21:33;3.75;;;0.80;;
7359;SDS011;3720;48.274;7.796;2022-10-15T11:24:15;3.30;;;0.70;;
7359;SDS011;3720;48.274;7.796;2022-10-15T11:26:57;2.45;;;0.77;;
7359;SDS011;3720;48.274;7.796;2022-10-15T11:29:39;2.30;;;0.68;;
7359;SDS011;3720;48.274;7.796;2022-10-15T11:32:21;5.07;;;0.90;;
7359;SDS011;3720;48.274;7.796;2022-10-15T11:35:08;1.65;;;0.70;;
7359;SDS011;3720;48.274;7.796;2022-10-15T11:37:54;3.00;;;0.70;;
7359;SDS011;3720;48.274;7.796;2022-10-15T11:40:36;3.63;;;0.85;;
7359;SDS011;3720;48.274;7.796;2022-10-15T11:43:16;4.00;;;0.85;;
7359;SDS011;3720;48.274;7.796;2022-10-15T11:45:59;4.13;;;0.90;;
7359;SDS011;3720;48.274;7.796;2022-10-15T11:48:39;1.88;;;0.70;;
7359;SDS011;3720;48.274;7.796;2022-10-15T11:51:29;2.25;;;0.68;;
7359;SDS011;3720;48.274;7.796;2022-10-15T11:54:15;1.70;;;0.50;;
7359;SDS011;3720;48.274;7.796;2022-10-15T11:56:57;1.58;;;0.60;;
7359;SDS011;3720;48.274;7.796;2022-10-15T11:59:33;1.65;;;0.60;;
7359;SDS011;3720;48.274;7.796;2022-10-15T12:02:10;3.08;;;0.60;;
7359;SDS011;3720;48.274;7.796;2022-10-15T12:04:48;1.75;;;0.77;;
7359;SDS011;3720;48.274;7.796;2022-10-15T12:07:25;3.55;;;0.85;;
7359;SDS011;3720;48.274;7.796;2022-10-15T12:10:03;2.13;;;0.73;;
7359;SDS011;3720;48.274;7.796;2022-10-15T12:12:40;3.03;;;0.85;;
7359;SDS011;3720;48.274;7.796;2022-10-15T12:15:22;3.10;;;0.80;;
7359;SDS011;3720;48.274;7.796;2022-10-15T12:18:01;1.17;;;0.60;;
7359;SDS011;3720;48.274;7.796;2022-10-15T12:20:41;4.43;;;1.00;;
7359;SDS011;3720;48.274;7.796;2022-10-15T12:23:25;3.05;;;0.65;;
7359;SDS011;3720;48.274;7.796;2022-10-15T12:29:04;1.77;;;0.80;;
7359;SDS011;3720;48.274;7.796;2022-10-15T12:31:49;3.95;;;0.70;;
7359;SDS011;3720;48.274;7.796;2022-10-15T12:34:29;3.58;;;0.90;;
7359;SDS011;3720;48.274;7.796;2022-10-15T12:37:14;1.90;;;0.90;;
7359;SDS011;3720;48.274;7.796;2022-10-15T12:39:53;2.20;;;0.90;;
7359;SDS011;3720;48.274;7.796;2022-10-15T12:42:28;3.03;;;0.90;;
7359;SDS011;3720;48.274;7.796;2022-10-15T12:45:04;2.55;;;0.80;;
7359;SDS011;3720;48.274;7.796;2022-10-15T12:47:44;2.35;;;0.60;;
7359;SDS011;3720;48.274;7.796;2022-10-15T12:50:18;2.20;;;0.63;;
7359;SDS011;3720;48.274;7.796;2022-10-15T12:52:58;5.53;;;0.70;;
7359;SDS011;3720;48.274;7.796;2022-10-15T12:55:33;3.67;;;0.65;;
7359;SDS011;3720;48.274;7.796;2022-10-15T13:01:03;1.42;;;0.52;;
7359;SDS011;3720;48.274;7.796;2022-10-15T13:03:38;3.05;;;0.70;;
7359;SDS011;3720;48.274;7.796;2022-10-15T13:06:21;2.05;;;0.63;;
7359;SDS011;3720;48.274;7.796;2022-10-15T13:08:58;1.00;;;0.60;;
7359;SDS011;3720;48.274;7.796;2022-10-15T13:11:51;2.10;;;0.63;;
7359;SDS011;3720;48.274;7.796;2022-10-15T13:14:26;3.03;;;0.80;;
7359;SDS011;3720;48.274;7.796;2022-10-15T13:17:02;1.63;;;0.60;;
7359;SDS011;3720;48.274;7.796;2022-10-15T13:19:37;1.33;;;0.70;;
7359;SDS011;3720;48.274;7.796;2022-10-15T13:22:18;1.73;;;0.60;;
7359;SDS011;3720;48.274;7.796;2022-10-15T13:24:52;1.63;;;0.70;;
7359;SDS011;3720;48.274;7.796;2022-10-15T13:27:28;1.00;;;0.65;;
7359;SDS011;3720;48.274;7.796;2022-10-15T13:30:01;2.00;;;0.85;;
7359;SDS011;3720;48.274;7.796;2022-10-15T13:32:35;2.05;;;0.68;;
7359;SDS011;3720;48.274;7.796;2022-10-15T13:35:16;2.58;;;0.73;;
7359;SDS011;3720;48.274;7.796;2022-10-15T13:37:51;5.05;;;0.80;;
7359;SDS011;3720;48.274;7.796;2022-10-15T13:40:23;3.53;;;0.95;;
7359;SDS011;3720;48.274;7.796;2022-10-15T13:42:58;2.28;;;0.70;;
7359;SDS011;3720;48.274;7.796;2022-10-15T13:45:31;3.10;;;0.90;;
7359;SDS011;3720;48.274;7.796;2022-10-15T13:48:09;4.10;;;0.90;;
7359;SDS011;3720;48.274;7.796;2022-10-15T13:50:42;3.40;;;0.98;;
7359;SDS011;3720;48.274;7.796;2022-10-15T13:53:20;2.05;;;0.85;;
7359;SDS011;3720;48.274;7.796;2022-10-15T13:55:56;3.13;;;0.80;;
7359;SDS011;3720;48.274;7.796;2022-10-15T13:58:32;2.05;;;0.77;;
7359;SDS011;3720;48.274;7.796;2022-10-15T14:01:06;3.90;;;0.70;;
7359;SDS011;3720;48.274;7.796;2022-10-15T14:03:45;4.05;;;0.68;;
7359;SDS011;3720;48.274;7.796;2022-10-15T14:06:19;2.75;;;0.70;;
7359;SDS011;3720;48.274;7.796;2022-10-15T14:08:53;3.55;;;0.70;;
7359;SDS011;3720;48.274;7.796;2022-10-15T14:11:27;1.52;;;0.70;;
7359;SDS011;3720;48.274;7.796;2022-10-15T14:14:01;2.88;;;1.08;;
7359;SDS011;3720;48.274;7.796;2022-10-15T14:16:34;1.27;;;0.68;;
7359;SDS011;3720;48.274;7.796;2022-10-15T14:19:14;3.80;;;0.90;;
7359;SDS011;3720;48.274;7.796;2022-10-15T14:21:50;1.77;;;0.88;;
7359;SDS011;3720;48.274;7.796;2022-10-15T14:24:23;1.95;;;0.77;;
7359;SDS011;3720;48.274;7.796;2022-10-15T14:27:05;2.20;;;0.65;;
7359;SDS011;3720;48.274;7.796;2022-10-15T14:29:46;2.35;;;0.80;;
7359;SDS011;3720;48.274;7.796;2022-10-15T14:32:20;1.10;;;0.60;;
7359;SDS011;3720;48.274;7.796;2022-10-15T14:34:55;4.93;;;0.60;;
7359;SDS011;3720;48.274;7.796;2022-10-15T14:37:38;1.05;;;0.60;;
7359;SDS011;3720;48.274;7.796;2022-10-15T14:40:21;1.95;;;0.77;;
7359;SDS011;3720;48.274;7.796;2022-10-15T14:43:00;1.73;;;0.65;;
7359;SDS011;3720;48.274;7.796;2022-10-15T14:45:36;2.30;;;0.90;;
7359;SDS011;3720;48.274;7.796;2022-10-15T14:48:15;6.50;;;1.40;;
7359;SDS011;3720;48.274;7.796;2022-10-15T14:50:51;2.95;;;0.98;;
7359;SDS011;3720;48.274;7.796;2022-10-15T14:53:28;2.28;;;0.70;;
7359;SDS011;3720;48.274;7.796;2022-10-15T14:56:06;1.15;;;0.70;;
7359;SDS011;3720;48.274;7.796;2022-10-15T14:58:45;2.67;;;0.70;;
7359;SDS011;3720;48.274;7.796;2022-10-15T15:01:22;3.55;;;0.73;;
7359;SDS011;3720;48.274;7.796;2022-10-15T15:03:56;2.28;;;0.50;;
7359;SDS011;3720;48.274;7.796;2022-10-15T15:06:28;1.15;;;0.70;;
7359;SDS011;3720;48.274;7.796;2022-10-15T15:09:01;0.60;;;0.52;;
7359;SDS011;3720;48.274;7.796;2022-10-15T15:11:33;1.42;;;0.60;;
7359;SDS011;3720;48.274;7.796;2022-10-15T15:14:16;2.10;;;0.70;;
7359;SDS011;3720;48.274;7.796;2022-10-15T15:16:53;3.15;;;0.60;;
7359;SDS011;3720;48.274;7.796;2022-10-15T15:19:25;2.38;;;0.90;;
7359;SDS011;3720;48.274;7.796;2022-10-15T15:21:57;1.50;;;0.85;;
7359;SDS011;3720;48.274;7.796;2022-10-15T15:24:29;2.17;;;0.90;;
7359;SDS011;3720;48.274;7.796;2022-10-15T15:27:01;1.60;;;0.82;;
7359;SDS011;3720;48.274;7.796;2022-10-15T15:29:32;1.38;;;0.82;;
7359;SDS011;3720;48.274;7.796;2022-10-15T15:32:07;1.63;;;0.70;;
7359;SDS011;3720;48.274;7.796;2022-10-15T15:34:40;1.45;;;0.70;;
7359;SDS011;3720;48.274;7.796;2022-10-15T15:37:13;1.15;;;0.60;;
7359;SDS011;3720;48.274;7.796;2022-10-15T15:39:46;1.63;;;0.90;;
7359;SDS011;3720;48.274;7.796;2022-10-15T15:42:19;2.78;;;0.77;;
7359;SDS011;3720;48.274;7.796;2022-10-15T15:44:52;2.28;;;0.60;;
7359;SDS011;3720;48.274;7.796;2022-10-15T15:47:26;1.85;;;0.60;;
7359;SDS011;3720;48.274;7.796;2022-10-15T15:49:57;2.15;;;0.60;;
7359;SDS011;3720;48.274;7.796;2022-10-15T15:52:29;0.77;;;0.60;;
7359;SDS011;3720;48.274;7.796;2022-10-15T15:55:01;3.78;;;0.70;;
7359;SDS011;3720;48.274;7.796;2022-10-15T15:57:33;3.50;;;0.70;;
7359;SDS011;3720;48.274;7.796;2022-10-15T16:00:05;1.65;;;0.57;;
7359;SDS011;3720;48.274;7.796;2022-10-15T16:02:40;0.85;;;0.50;;
7359;SDS011;3720;48.274;7.796;2022-10-15T16:05:13;4.03;;;0.60;;
7359;SDS011;3720;48.274;7.796;2022-10-15T16:07:46;2.67;;;0.73;;
7359;SDS011;3720;48.274;7.796;2022-10-15T16:10:18;2.15;;;0.70;;
7359;SDS011;3720;48.274;7.796;2022-10-15T16:12:50;1.48;;;0.82;;
7359;SDS011;3720;48.274;7.796;2022-10-15T16:15:22;3.88;;;1.10;;